Wetterstation Vordersexau
Wetterdaten: Woche 21.01.13 - 27.01.13 (KW4)
Datum Zeit Temp. A. Feuchte A. Luftdruck Regen Wind Richtung Taupunkt Windchill Windben
21.01.2013 00:00 0,3 C 82 % 994,8 hPa 0,0 l/m 17,5 km/h W -2,4 C -8,0 C 9,7 km/h
21.01.2013 01:00 0,1 C 87 % 995,0 hPa 0,0 l/m 12,3 km/h W -1,8 C -5,1 C 6,8 km/h
21.01.2013 02:00 -0,1 C 86 % 995,2 hPa 0,0 l/m 8,4 km/h W -2,2 C -2,1 C 4,7 km/h
21.01.2013 03:00 -0,2 C 86 % 995,4 hPa 0,0 l/m 8,4 km/h NW -2,3 C -2,2 C 4,7 km/h
21.01.2013 04:00 -0,2 C 86 % 995,6 hPa 0,0 l/m 12,3 km/h W-SW -2,3 C -5,4 C 6,8 km/h
21.01.2013 05:00 -0,6 C 87 % 996,0 hPa 0,0 l/m 0,0 km/h W -2,5 C -0,6 C 0,0 km/h
21.01.2013 06:00 -0,7 C 87 % 996,3 hPa 0,0 l/m 3,9 km/h N-NW -2,6 C -0,7 C 2,2 km/h
21.01.2013 07:00 -0,9 C 86 % 996,5 hPa 0,0 l/m 0,0 km/h N-NW -2,9 C -0,9 C 0,0 km/h
21.01.2013 08:00 -1,0 C 86 % 996,7 hPa 0,0 l/m 0,0 km/h O-SO -3,0 C -1,0 C 0,0 km/h
21.01.2013 09:00 -0,1 C 85 % 996,6 hPa 0,0 l/m 0,0 km/h O-SO -2,3 C -0,1 C 0,0 km/h
21.01.2013 10:00 2,9 C 87 % 996,7 hPa 0,0 l/m 0,0 km/h O-SO 1,0 C 2,9 C 0,0 km/h
21.01.2013 11:00 3,8 C 82 % 996,4 hPa 0,0 l/m 0,0 km/h O-SO 1,0 C 3,8 C 0,0 km/h
21.01.2013 12:00 5,5 C 76 % 996,1 hPa 0,0 l/m 0,0 km/h O-SO 1,6 C 5,5 C 0,0 km/h
21.01.2013 13:00 7,0 C 73 % 996,0 hPa 0,0 l/m 0,0 km/h O-SO 2,5 C 7,0 C 0,0 km/h
21.01.2013 14:00 5,7 C 70 % 996,0 hPa 1,6 l/m 0,0 km/h O-SO 0,7 C 5,7 C 0,0 km/h
21.01.2013 15:00 3,8 C 76 % 995,5 hPa 0,5 l/m 0,0 km/h O-SO -0,0 C 3,8 C 0,0 km/h
21.01.2013 16:00 2,2 C 79 % 995,6 hPa 0,5 l/m 0,0 km/h O-SO -1,1 C 2,2 C 0,0 km/h
21.01.2013 17:00 1,0 C 84 % 995,4 hPa 0,0 l/m 0,0 km/h O-SO -1,4 C 1,0 C 0,0 km/h
21.01.2013 18:00 0,4 C 86 % 995,6 hPa 0,0 l/m 0,0 km/h O-SO -1,7 C 0,4 C 0,0 km/h
21.01.2013 19:00 0,5 C 86 % 995,9 hPa 0,0 l/m 0,0 km/h O-NO -1,6 C 0,5 C 0,0 km/h
21.01.2013 20:00 0,8 C 86 % 996,3 hPa 0,5 l/m 0,0 km/h S-SW -1,3 C 0,8 C 0,0 km/h
21.01.2013 21:00 2,4 C 86 % 996,8 hPa 0,0 l/m 0,0 km/h O-NO 0,3 C 2,4 C 0,0 km/h
21.01.2013 22:00 1,3 C 86 % 996,8 hPa 0,5 l/m 0,0 km/h O-NO -0,8 C 1,3 C 0,0 km/h
21.01.2013 23:00 1,0 C 86 % 997,1 hPa 0,5 l/m 0,6 km/h S -1,1 C 1,0 C 0,4 km/h
22.01.2013 00:00 1,3 C 85 % 997,5 hPa 0,0 l/m 1,9 km/h S -0,9 C 1,3 C 1,1 km/h
22.01.2013 01:00 3,6 C 81 % 997,5 hPa 1,0 l/m 2,6 km/h W-SW 0,7 C 3,6 C 1,4 km/h
22.01.2013 02:00 3,5 C 81 % 997,9 hPa 1,0 l/m 25,9 km/h W 0,6 C -7,3 C 14,4 km/h
22.01.2013 03:00 3,4 C 82 % 998,2 hPa 0,5 l/m 18,8 km/h SW 0,6 C -4,7 C 10,4 km/h
22.01.2013 04:00 3,2 C 83 % 998,5 hPa 0,5 l/m 18,1 km/h W 0,6 C -4,7 C 10,1 km/h
22.01.2013 05:00 2,9 C 84 % 998,9 hPa 0,5 l/m 10,4 km/h SW 0,5 C -0,5 C 5,8 km/h
22.01.2013 06:00 2,0 C 83 % 999,7 hPa 0,0 l/m 45,4 km/h W-SW -0,6 C -13,9 C 25,2 km/h
22.01.2013 07:00 1,9 C 83 % 1000,4 hPa 0,0 l/m 27,9 km/h W -0,7 C -10,1 C 15,5 km/h
22.01.2013 08:00 1,6 C 84 % 1001,1 hPa 0,5 l/m 13,0 km/h SW -0,8 C -3,8 C 7,2 km/h
22.01.2013 09:00 1,3 C 86 % 1002,0 hPa 0,0 l/m 22,7 km/h SW -0,8 C -9,1 C 12,6 km/h
22.01.2013 10:00 1,6 C 86 % 1002,5 hPa 0,0 l/m 24,0 km/h W -0,5 C -9,2 C 13,3 km/h
22.01.2013 11:00 1,8 C 86 % 1003,0 hPa 0,0 l/m 3,9 km/h W-SW -0,3 C 1,8 C 2,2 km/h
22.01.2013 12:00 2,4 C 86 % 1003,0 hPa 0,0 l/m 18,1 km/h W 0,3 C -5,7 C 10,1 km/h
22.01.2013 13:00 3,5 C 82 % 1002,7 hPa 0,0 l/m 7,1 km/h W 0,7 C 2,8 C 4,0 km/h
22.01.2013 14:00 3,5 C 79 % 1002,3 hPa 0,5 l/m 0,0 km/h W 0,2 C 3,5 C 0,0 km/h
22.01.2013 15:00 3,9 C 75 % 1002,5 hPa 0,0 l/m 7,8 km/h W-NW -0,1 C 2,6 C 4,3 km/h
22.01.2013 16:00 5,8 C 72 % 1002,7 hPa 0,0 l/m 22,7 km/h W 1,2 C -3,1 C 12,6 km/h
22.01.2013 17:00 2,8 C 76 % 1002,9 hPa 0,0 l/m 0,0 km/h O -1,0 C 2,8 C 0,0 km/h
22.01.2013 18:00 0,2 C 82 % 1002,6 hPa 0,0 l/m 0,0 km/h SO -2,5 C 0,2 C 0,0 km/h
22.01.2013 19:00 -0,8 C 86 % 1003,0 hPa 0,0 l/m 0,0 km/h SO -2,8 C -0,8 C 0,0 km/h
22.01.2013 20:00 -0,1 C 86 % 1002,9 hPa 0,0 l/m 0,0 km/h S-SO -2,2 C -0,1 C 0,0 km/h
22.01.2013 21:00 0,6 C 86 % 1002,8 hPa 0,0 l/m 0,0 km/h S-SO -1,5 C 0,6 C 0,0 km/h
22.01.2013 22:00 0,3 C 87 % 1002,9 hPa 0,0 l/m 0,0 km/h SO -1,6 C 0,3 C 0,0 km/h
22.01.2013 23:00 0,5 C 87 % 1003,2 hPa 0,0 l/m 0,0 km/h SO -1,4 C 0,5 C 0,0 km/h
23.01.2013 00:00 0,2 C 87 % 1003,4 hPa 0,0 l/m 0,0 km/h SO -1,7 C 0,2 C 0,0 km/h
23.01.2013 01:00 0,1 C 86 % 1003,1 hPa 0,0 l/m 0,0 km/h O-NO -2,0 C 0,1 C 0,0 km/h
23.01.2013 02:00 0,1 C 86 % 1003,3 hPa 0,0 l/m 0,0 km/h O -2,0 C 0,1 C 0,0 km/h
23.01.2013 03:00 -0,4 C 86 % 1003,3 hPa 0,0 l/m 0,0 km/h W-NW -2,4 C -0,4 C 0,0 km/h
23.01.2013 04:00 -0,4 C 86 % 1003,5 hPa 0,0 l/m 0,0 km/h O-SO -2,4 C -0,4 C 0,0 km/h
23.01.2013 05:00 -1,1 C 85 % 1003,0 hPa 0,0 l/m 0,0 km/h SO -3,3 C -1,1 C 0,0 km/h
23.01.2013 06:00 -1,0 C 85 % 1002,9 hPa 0,0 l/m 0,0 km/h N-NO -3,2 C -1,0 C 0,0 km/h
23.01.2013 07:00 -1,7 C 85 % 1002,8 hPa 0,0 l/m 0,0 km/h N-NW -3,9 C -1,7 C 0,0 km/h
23.01.2013 08:00 -1,6 C 83 % 1003,4 hPa 0,0 l/m 2,6 km/h W-NW -4,1 C -1,6 C 1,4 km/h
23.01.2013 09:00 -1,1 C 81 % 1003,9 hPa 0,0 l/m 0,0 km/h W-NW -3,9 C -1,1 C 0,0 km/h
23.01.2013 10:00 -0,7 C 80 % 1004,5 hPa 0,0 l/m 0,0 km/h W-NW -3,7 C -0,7 C 0,0 km/h
23.01.2013 11:00 -0,1 C 80 % 1004,7 hPa 0,0 l/m 0,0 km/h W-NW -3,1 C -0,1 C 0,0 km/h
23.01.2013 12:00 0,2 C 81 % 1004,3 hPa 0,0 l/m 0,0 km/h NO -2,7 C 0,2 C 0,0 km/h
23.01.2013 13:00 1,3 C 84 % 1004,0 hPa 0,0 l/m 0,0 km/h W -1,1 C 1,3 C 0,0 km/h
23.01.2013 14:00 0,6 C 86 % 1004,0 hPa 0,0 l/m 1,3 km/h SO -1,5 C 0,6 C 0,7 km/h
23.01.2013 15:00 0,3 C 84 % 1004,2 hPa 0,0 l/m 0,0 km/h S -2,1 C 0,3 C 0,0 km/h
23.01.2013 16:00 -0,2 C 84 % 1004,5 hPa 0,0 l/m 2,6 km/h W-NW -2,6 C -0,2 C 1,4 km/h
23.01.2013 17:00 -0,2 C 84 % 1004,9 hPa 0,0 l/m 0,0 km/h S-SO -2,6 C -0,2 C 0,0 km/h
23.01.2013 18:00 -0,2 C 83 % 1005,2 hPa 0,0 l/m 1,3 km/h S-SW -2,7 C -0,2 C 0,7 km/h
23.01.2013 19:00 -0,2 C 81 % 1005,5 hPa 0,0 l/m 0,0 km/h SW -3,1 C -0,2 C 0,0 km/h
23.01.2013 20:00 -0,1 C 80 % 1005,4 hPa 0,0 l/m 0,0 km/h S -3,1 C -0,1 C 0,0 km/h
23.01.2013 21:00 -0,1 C 80 % 1005,5 hPa 0,0 l/m 5,2 km/h S -3,1 C -0,1 C 2,9 km/h
23.01.2013 22:00 -0,1 C 80 % 1005,9 hPa 0,0 l/m 0,0 km/h S-SO -3,1 C -0,1 C 0,0 km/h
23.01.2013 23:00 0,1 C 81 % 1005,6 hPa 0,0 l/m 0,0 km/h SW -2,8 C 0,1 C 0,0 km/h
24.01.2013 00:00 -0,1 C 82 % 1005,2 hPa 0,0 l/m 0,0 km/h SW -2,8 C -0,1 C 0,0 km/h
24.01.2013 01:00 -0,1 C 84 % 1005,1 hPa 0,0 l/m 0,0 km/h S -2,5 C -0,1 C 0,0 km/h
24.01.2013 02:00 -0,1 C 85 % 1004,9 hPa 0,0 l/m 0,0 km/h S-SW -2,3 C -0,1 C 0,0 km/h
24.01.2013 03:00 -0,1 C 85 % 1004,8 hPa 0,0 l/m 0,0 km/h S-SW -2,3 C -0,1 C 0,0 km/h
24.01.2013 04:00 -0,2 C 85 % 1004,5 hPa 0,0 l/m 0,0 km/h S-SW -2,4 C -0,2 C 0,0 km/h
24.01.2013 05:00 -0,2 C 86 % 1004,6 hPa 0,0 l/m 0,0 km/h S-SW -2,3 C -0,2 C 0,0 km/h
24.01.2013 06:00 -0,2 C 86 % 1004,6 hPa 0,0 l/m 0,0 km/h W-NW -2,3 C -0,2 C 0,0 km/h
24.01.2013 07:00 -0,6 C 85 % 1005,1 hPa 0,0 l/m 0,0 km/h N-NW -2,8 C -0,6 C 0,0 km/h
24.01.2013 08:00 -1,1 C 84 % 1005,7 hPa 0,0 l/m 0,0 km/h NW -3,4 C -1,1 C 0,0 km/h
24.01.2013 09:00 -1,1 C 83 % 1006,1 hPa 0,0 l/m 0,0 km/h NW -3,6 C -1,1 C 0,0 km/h
24.01.2013 10:00 -0,9 C 83 % 1006,5 hPa 0,0 l/m 0,0 km/h NW -3,4 C -0,9 C 0,0 km/h
24.01.2013 11:00 -0,7 C 83 % 1007,3 hPa 0,0 l/m 0,6 km/h NW -3,2 C -0,7 C 0,4 km/h
24.01.2013 12:00 -0,5 C 84 % 1007,3 hPa 0,0 l/m 5,8 km/h N-NW -2,9 C -0,5 C 3,2 km/h
24.01.2013 13:00 -0,6 C 86 % 1007,3 hPa 0,0 l/m 0,0 km/h N-NW -2,6 C -0,6 C 0,0 km/h
24.01.2013 14:00 -0,6 C 87 % 1007,4 hPa 0,0 l/m 1,9 km/h NW -2,5 C -0,6 C 1,1 km/h
24.01.2013 15:00 -0,9 C 87 % 1007,9 hPa 0,0 l/m 0,0 km/h W -2,8 C -0,9 C 0,0 km/h
24.01.2013 16:00 -1,2 C 87 % 1008,4 hPa 0,0 l/m 0,0 km/h W -3,1 C -1,2 C 0,0 km/h
24.01.2013 17:00 -1,5 C 87 % 1009,3 hPa 0,0 l/m 0,0 km/h W-NW -3,4 C -1,5 C 0,0 km/h
24.01.2013 18:00 -1,4 C 87 % 1010,2 hPa 0,0 l/m 0,0 km/h W-NW -3,3 C -1,4 C 0,0 km/h
24.01.2013 19:00 -1,6 C 87 % 1010,8 hPa 0,0 l/m 0,0 km/h W-NW -3,5 C -1,6 C 0,0 km/h
24.01.2013 20:00 -1,8 C 87 % 1011,6 hPa 0,0 l/m 0,0 km/h NW -3,7 C -1,8 C 0,0 km/h
24.01.2013 21:00 -2,3 C 87 % 1012,4 hPa 0,0 l/m 4,5 km/h NW -4,2 C -2,3 C 2,5 km/h
24.01.2013 22:00 -2,6 C 87 % 1012,8 hPa 0,0 l/m 0,0 km/h NW -4,5 C -2,6 C 0,0 km/h
24.01.2013 23:00 -2,6 C 87 % 1013,5 hPa 0,0 l/m 0,0 km/h N -4,5 C -2,6 C 0,0 km/h
25.01.2013 00:00 -2,4 C 87 % 1013,8 hPa 0,0 l/m 0,0 km/h N -4,3 C -2,4 C 0,0 km/h
25.01.2013 01:00 -2,4 C 87 % 1013,9 hPa 0,0 l/m 0,0 km/h N-NW -4,3 C -2,4 C 0,0 km/h
25.01.2013 02:00 -2,4 C 87 % 1014,1 hPa 0,0 l/m 0,0 km/h NW -4,3 C -2,4 C 0,0 km/h
25.01.2013 03:00 -2,4 C 87 % 1014,2 hPa 0,0 l/m 1,3 km/h NW -4,3 C -2,4 C 0,7 km/h
25.01.2013 04:00 -2,4 C 87 % 1014,5 hPa 0,0 l/m 1,9 km/h NO -4,3 C -2,4 C 1,1 km/h
25.01.2013 05:00 -2,2 C 87 % 1014,9 hPa 0,0 l/m 0,0 km/h N -4,1 C -2,2 C 0,0 km/h
25.01.2013 06:00 -2,4 C 87 % 1015,1 hPa 0,0 l/m 0,0 km/h N-NO -4,3 C -2,4 C 0,0 km/h
25.01.2013 07:00 -2,4 C 87 % 1015,3 hPa 0,0 l/m 0,0 km/h N-NW -4,3 C -2,4 C 0,0 km/h
25.01.2013 08:00 -2,4 C 87 % 1015,5 hPa 0,0 l/m 0,0 km/h NW -4,3 C -2,4 C 0,0 km/h
25.01.2013 09:00 -2,1 C 87 % 1015,5 hPa 0,0 l/m 0,0 km/h NW -4,0 C -2,1 C 0,0 km/h
25.01.2013 10:00 -2,0 C 86 % 1015,9 hPa 0,0 l/m 1,3 km/h NW -4,0 C -2,0 C 0,7 km/h
25.01.2013 11:00 -1,5 C 85 % 1016,3 hPa 0,0 l/m 0,0 km/h NW -3,7 C -1,5 C 0,0 km/h
25.01.2013 12:00 -1,3 C 85 % 1016,1 hPa 0,0 l/m 0,0 km/h W -3,5 C -1,3 C 0,0 km/h
25.01.2013 13:00 -1,1 C 84 % 1015,9 hPa 0,0 l/m 0,0 km/h W-NW -3,4 C -1,1 C 0,0 km/h
25.01.2013 14:00 -0,7 C 84 % 1015,5 hPa 0,0 l/m 0,0 km/h NW -3,1 C -0,7 C 0,0 km/h
25.01.2013 15:00 -0,8 C 83 % 1015,5 hPa 0,0 l/m 0,0 km/h W -3,3 C -0,8 C 0,0 km/h
25.01.2013 16:00 -1,0 C 83 % 1015,1 hPa 0,0 l/m 0,0 km/h NW -3,5 C -1,0 C 0,0 km/h
25.01.2013 17:00 -1,5 C 84 % 1015,0 hPa 0,0 l/m 0,0 km/h N-NW -3,8 C -1,5 C 0,0 km/h
25.01.2013 18:00 -1,5 C 85 % 1015,4 hPa 0,0 l/m 0,6 km/h N-NW -3,7 C -1,5 C 0,4 km/h
25.01.2013 19:00 -1,6 C 85 % 1014,9 hPa 0,0 l/m 0,0 km/h N-NW -3,8 C -1,6 C 0,0 km/h
25.01.2013 20:00 -1,6 C 86 % 1014,4 hPa 0,0 l/m 0,0 km/h N-NW -3,6 C -1,6 C 0,0 km/h
25.01.2013 21:00 -2,6 C 86 % 1013,3 hPa 0,0 l/m 0,0 km/h N-NW -4,6 C -2,6 C 0,0 km/h
25.01.2013 22:00 -3,2 C 87 % 1012,8 hPa 0,0 l/m 0,0 km/h S-SO -5,0 C -3,2 C 0,0 km/h
25.01.2013 23:00 -4,4 C 87 % 1012,0 hPa 0,0 l/m 0,0 km/h S-SO -6,2 C -4,4 C 0,0 km/h
26.01.2013 00:00 -5,4 C 87 % 1011,1 hPa 0,0 l/m 0,0 km/h S-SO -7,2 C -5,4 C 0,0 km/h
26.01.2013 01:00 -5,7 C 87 % 1010,0 hPa 0,0 l/m 0,0 km/h S-SO -7,5 C -5,7 C 0,0 km/h
26.01.2013 02:00 -6,1 C 88 % 1009,3 hPa 0,0 l/m 0,0 km/h S-SO -7,8 C -6,1 C 0,0 km/h
26.01.2013 03:00 -6,7 C 87 % 1009,1 hPa 0,0 l/m 0,0 km/h S-SO -8,5 C -6,7 C 0,0 km/h
26.01.2013 04:00 -7,0 C 87 % 1008,9 hPa 0,0 l/m 0,0 km/h O -8,8 C -7,0 C 0,0 km/h
26.01.2013 05:00 -7,1 C 87 % 1008,9 hPa 0,0 l/m 0,0 km/h S-SO -8,9 C -7,1 C 0,0 km/h
26.01.2013 06:00 -7,6 C 87 % 1009,5 hPa 0,0 l/m 0,0 km/h SO -9,4 C -7,6 C 0,0 km/h
26.01.2013 07:00 -7,7 C 87 % 1010,1 hPa 0,0 l/m 0,0 km/h S-SO -9,5 C -7,7 C 0,0 km/h
26.01.2013 08:00 -7,8 C 87 % 1010,3 hPa 0,0 l/m 0,0 km/h NO -9,6 C -7,8 C 0,0 km/h
26.01.2013 09:00 -4,6 C 87 % 1009,9 hPa 0,0 l/m 1,9 km/h O -6,4 C -4,6 C 1,1 km/h
26.01.2013 10:00 -0,4 C 86 % 1009,7 hPa 0,0 l/m 0,0 km/h S-SO -2,4 C -0,4 C 0,0 km/h
26.01.2013 11:00 1,6 C 78 % 1011,0 hPa 0,0 l/m 3,9 km/h SW -1,8 C 1,6 C 2,2 km/h
26.01.2013 12:00 4,2 C 67 % 1011,2 hPa 0,0 l/m 0,0 km/h W-SW -1,4 C 4,2 C 0,0 km/h
26.01.2013 13:00 3,6 C 63 % 1011,9 hPa 0,0 l/m 0,0 km/h S -2,8 C 3,6 C 0,0 km/h
26.01.2013 14:00 3,8 C 63 % 1012,1 hPa 0,0 l/m 1,9 km/h NW -2,6 C 3,8 C 1,1 km/h
26.01.2013 15:00 4,1 C 63 % 1011,9 hPa 0,0 l/m 1,9 km/h W -2,3 C 4,1 C 1,1 km/h
26.01.2013 16:00 1,8 C 64 % 1012,5 hPa 0,0 l/m 0,0 km/h S -4,3 C 1,8 C 0,0 km/h
26.01.2013 17:00 -0,7 C 75 % 1012,6 hPa 0,0 l/m 1,3 km/h O-SO -4,6 C -0,7 C 0,7 km/h
26.01.2013 18:00 -1,6 C 80 % 1012,8 hPa 0,0 l/m 0,0 km/h S-SO -4,6 C -1,6 C 0,0 km/h
26.01.2013 19:00 -2,3 C 82 % 1013,4 hPa 0,0 l/m 0,0 km/h SO -4,9 C -2,3 C 0,0 km/h
26.01.2013 20:00 -2,9 C 84 % 1013,7 hPa 0,0 l/m 0,0 km/h O -5,2 C -2,9 C 0,0 km/h
26.01.2013 21:00 -1,6 C 84 % 1013,9 hPa 0,0 l/m 0,0 km/h O -3,9 C -1,6 C 0,0 km/h
26.01.2013 22:00 -1,2 C 84 % 1014,5 hPa 0,0 l/m 0,0 km/h S-SO -3,5 C -1,2 C 0,0 km/h
26.01.2013 23:00 -0,8 C 83 % 1015,0 hPa 0,0 l/m 0,0 km/h S-SO -3,3 C -0,8 C 0,0 km/h
27.01.2013 00:00 -0,5 C 83 % 1014,4 hPa 0,0 l/m 0,0 km/h SO -3,0 C -0,5 C 0,0 km/h
27.01.2013 01:00 -0,2 C 83 % 1014,7 hPa 0,0 l/m 0,0 km/h NO -2,7 C -0,2 C 0,0 km/h
27.01.2013 02:00 -0,6 C 84 % 1014,3 hPa 0,0 l/m 0,0 km/h O -3,0 C -0,6 C 0,0 km/h
27.01.2013 03:00 -0,3 C 85 % 1013,2 hPa 0,0 l/m 0,0 km/h NO -2,5 C -0,3 C 0,0 km/h
27.01.2013 04:00 -0,1 C 85 % 1012,9 hPa 0,0 l/m 0,0 km/h W -2,3 C -0,1 C 0,0 km/h
27.01.2013 05:00 1,8 C 85 % 1012,2 hPa 0,0 l/m 0,0 km/h W -0,4 C 1,8 C 0,0 km/h
27.01.2013 06:00 1,2 C 85 % 1011,2 hPa 0,0 l/m 0,0 km/h W-SW -1,0 C 1,2 C 0,0 km/h
27.01.2013 07:00 0,3 C 85 % 1010,5 hPa 0,0 l/m 0,0 km/h S-SO -1,9 C 0,3 C 0,0 km/h
27.01.2013 08:00 -0,7 C 86 % 1009,8 hPa 0,0 l/m 3,2 km/h O-SO -2,7 C -0,7 C 1,8 km/h
27.01.2013 09:00 0,4 C 86 % 1009,8 hPa 0,0 l/m 0,0 km/h S-SO -1,7 C 0,4 C 0,0 km/h
27.01.2013 10:00 5,0 C 84 % 1008,3 hPa 0,0 l/m 1,9 km/h N-NO 2,5 C 5,0 C 1,1 km/h
27.01.2013 11:00 8,0 C 69 % 1008,0 hPa 0,0 l/m 0,0 km/h NO 2,7 C 8,0 C 0,0 km/h
27.01.2013 12:00 6,6 C 68 % 1007,0 hPa 0,0 l/m 0,0 km/h W-NW 1,1 C 6,6 C 0,0 km/h
27.01.2013 13:00 6,7 C 69 % 1007,3 hPa 0,0 l/m 2,6 km/h NO 1,4 C 6,7 C 1,4 km/h
27.01.2013 14:00 6,1 C 71 % 1006,3 hPa 0,0 l/m 0,0 km/h S-SO 1,2 C 6,1 C 0,0 km/h
27.01.2013 15:00 4,9 C 75 % 1006,1 hPa 0,0 l/m 0,0 km/h W-SW 0,8 C 4,9 C 0,0 km/h
27.01.2013 16:00 6,1 C 68 % 1005,7 hPa 0,0 l/m 20,1 km/h S 0,6 C -1,8 C 11,2 km/h
27.01.2013 17:00 4,3 C 80 % 1006,1 hPa 0,5 l/m 12,3 km/h S 1,2 C -0,2 C 6,8 km/h
27.01.2013 18:00 3,1 C 85 % 1005,8 hPa 1,0 l/m 15,6 km/h W-SW 0,8 C -3,5 C 8,6 km/h
27.01.2013 19:00 4,4 C 85 % 1005,8 hPa 0,0 l/m 5,8 km/h W 2,1 C 4,4 C 3,2 km/h
27.01.2013 20:00 5,1 C 82 % 1005,6 hPa 0,0 l/m 0,0 km/h O-SO 2,3 C 5,1 C 0,0 km/h
27.01.2013 21:00 4,1 C 85 % 1006,0 hPa 0,0 l/m 0,0 km/h O-NO 1,8 C 4,1 C 0,0 km/h
27.01.2013 22:00 3,6 C 86 % 1006,3 hPa 0,0 l/m 0,0 km/h O-NO 1,5 C 3,6 C 0,0 km/h
27.01.2013 23:00 3,2 C 86 % 1006,9 hPa 0,0 l/m 0,0 km/h O-SO 1,1 C 3,2 C 0,0 km/h
Min-Datum _ 26.01.13 26.01.13 21.01.13 - 21.01.13 - 26.01.13 22.01.13 21.01.13
_ Min-Zeit 08:19 13:19 00:19 - 05:19 - 08:19 06:19 05:19
Minimum _ -7,8 C 63 % 994,8 hPa - 0,0 km/h - -9,6 C -13,9 C 0,0 km/h
Max-Datum _ 27.01.13 26.01.13 25.01.13 21.01.13 22.01.13 - 27.01.13 27.01.13 22.01.13
_ Max-Zeit 11:19 02:19 11:19 14:19 06:19 - 11:19 11:19 06:19
Maximum _ 8,0 C 88 % 1016,3 hPa 1,6 l/m 45,4 km/h
W-SW
- 2,7 C 8,0 C 25,2 km/h
W-SW
Durchschnitt _ 0,1 C 83 % 1006,3 hPa #10,4 l/m 2,6 km/h W -2,4 C -0,7 C 1,4 km/h
www.sexauwetter.de